createdAt,value
2024-05-09T00:07:06.741Z,89.46
2024-05-09T00:22:06.589Z,86.78
2024-05-09T00:37:06.429Z,87.13
2024-05-09T00:52:07.001Z,86.07
2024-05-09T01:07:06.179Z,84.15
2024-05-09T01:22:05.943Z,87.91
2024-05-09T01:37:05.806Z,90.60
2024-05-09T01:52:05.635Z,90.87
2024-05-09T02:07:05.474Z,89.19
2024-05-09T02:22:05.300Z,90.89
2024-05-09T02:37:05.164Z,90.10
2024-05-09T02:52:05.013Z,86.97
2024-05-09T03:07:04.873Z,90.08
2024-05-09T03:22:04.729Z,91.58
2024-05-09T03:37:04.522Z,92.20
2024-05-09T03:52:04.359Z,93.85
2024-05-09T04:07:04.218Z,93.19
2024-05-09T04:22:04.038Z,94.04
2024-05-09T04:37:03.893Z,96.33
2024-05-09T04:52:03.712Z,94.04
2024-05-09T05:07:03.576Z,89.09
2024-05-09T05:22:03.404Z,85.39
2024-05-09T05:37:03.241Z,81.50
2024-05-09T05:52:03.099Z,45.60
2024-05-09T06:07:02.920Z,34.84
2024-05-09T06:22:02.787Z,33.72
2024-05-09T06:37:02.653Z,33.09
2024-05-09T06:52:02.536Z,33.50
2024-05-09T07:07:02.396Z,32.56
2024-05-09T07:22:02.296Z,32.07
2024-05-09T07:37:02.182Z,31.76
2024-05-09T07:53:25.389Z,35.50
2024-05-09T08:07:01.946Z,39.22
2024-05-09T08:22:01.794Z,39.43
2024-05-09T08:37:15.513Z,37.29
2024-05-09T08:52:01.459Z,41.66
2024-05-09T09:07:03.476Z,36.26
2024-05-09T09:22:01.157Z,37.46
2024-05-09T09:37:01.015Z,36.13
2024-05-09T09:52:00.859Z,37.79
2024-05-09T10:07:00.719Z,35.21
2024-05-09T10:22:00.515Z,33.64
2024-05-09T10:37:01.426Z,32.33
2024-05-09T10:52:00.200Z,34.91
2024-05-09T11:07:01.574Z,34.86
2024-05-09T11:21:59.872Z,31.82
2024-05-09T11:36:59.720Z,36.29
2024-05-09T11:51:59.626Z,32.63
2024-05-09T12:06:59.548Z,35.08
2024-05-09T12:21:59.299Z,31.70
2024-05-09T12:36:59.129Z,35.10
2024-05-09T12:51:58.958Z,33.48
2024-05-09T13:06:58.842Z,31.69
2024-05-09T13:21:58.599Z,30.99
2024-05-09T13:36:58.510Z,31.36
2024-05-09T13:51:58.260Z,31.39
2024-05-09T14:06:58.121Z,33.38
2024-05-09T14:21:58.082Z,34.50
2024-05-09T14:36:57.824Z,30.68
2024-05-09T14:51:57.657Z,32.90
2024-05-09T15:06:57.491Z,31.53
2024-05-09T15:21:57.354Z,35.96
2024-05-09T15:36:57.164Z,36.27
2024-05-09T15:51:57.044Z,34.11
2024-05-09T16:06:56.825Z,35.29
2024-05-09T16:21:56.889Z,36.29
2024-05-09T16:36:56.578Z,37.51
2024-05-09T16:51:56.400Z,34.98
2024-05-09T17:06:56.229Z,39.11
2024-05-09T17:21:56.072Z,38.09
2024-05-09T17:36:55.943Z,36.95
2024-05-09T17:51:55.784Z,38.68
2024-05-09T18:06:55.677Z,39.62
2024-05-09T18:21:55.446Z,41.17
2024-05-09T18:36:55.297Z,50.50
2024-05-09T18:51:55.109Z,51.71
2024-05-09T19:06:54.960Z,51.15
2024-05-09T19:21:54.774Z,55.88
2024-05-09T19:36:54.573Z,60.55
2024-05-09T19:51:54.506Z,63.78
2024-05-09T20:06:54.400Z,60.46
2024-05-09T20:21:54.110Z,59.64
2024-05-09T20:36:53.996Z,60.46
2024-05-09T20:51:53.816Z,63.90
2024-05-09T21:06:53.698Z,64.75
2024-05-09T21:21:53.593Z,68.71
2024-05-09T21:36:53.289Z,70.61
2024-05-09T21:51:53.147Z,71.80
2024-05-09T22:06:52.988Z,73.30
2024-05-09T22:21:52.849Z,73.94
2024-05-09T22:36:52.671Z,74.80
2024-05-09T22:51:52.534Z,78.01
2024-05-09T23:06:52.351Z,76.61
2024-05-09T23:21:52.241Z,78.25
2024-05-09T23:36:52.020Z,77.67
2024-05-09T23:51:51.841Z,80.68
